TimeMST,TemperatureF,Dew PointF,Humidity,Sea Level PressureIn,VisibilityMPH,Wind Direction,Wind SpeedMPH,Gust SpeedMPH,PrecipitationIn,Events,Conditions,WindDirDegrees,DateUTC
12:53 AM,25.0,17.1,72,30.48,10.0,NNW,20.7,27.6,N/A,,Clear,340,2013-01-20 07:53:00
1:53 AM,24.1,17.1,75,30.54,10.0,North,18.4,-,N/A,,Overcast,350,2013-01-20 08:53:00
2:13 AM,24.8,17.6,74,30.41,10.0,NNW,8.1,-,N/A,,Overcast,330,2013-01-20 09:13:00
2:53 AM,24.1,16.0,71,30.59,10.0,WNW,6.9,-,N/A,,Overcast,290,2013-01-20 09:53:00
3:53 AM,24.1,17.1,75,30.61,10.0,NW,6.9,-,N/A,,Overcast,320,2013-01-20 10:53:00
4:53 AM,23.0,17.1,78,30.62,9.0,NNW,4.6,-,N/A,,Overcast,330,2013-01-20 11:53:00
5:53 AM,21.9,16.0,78,30.62,10.0,North,8.1,-,N/A,,Overcast,350,2013-01-20 12:53:00
6:41 AM,21.2,15.8,80,30.44,6.0,North,6.9,-,N/A,,Haze,350,2013-01-20 13:41:00
6:53 AM,21.0,16.0,81,30.61,5.0,North,5.8,-,0.00,Snow,Light Snow,350,2013-01-20 13:53:00
7:28 AM,19.4,15.8,86,30.43,7.0,North,8.1,-,0.00,,Overcast,350,2013-01-20 14:28:00
7:46 AM,19.4,15.8,86,30.43,7.0,North,8.1,-,0.00,,Overcast,360,2013-01-20 14:46:00
7:53 AM,19.9,15.1,81,30.60,7.0,North,8.1,-,0.00,,Overcast,10,2013-01-20 14:53:00
8:53 AM,19.0,14.0,81,30.61,7.0,North,8.1,-,N/A,,Overcast,360,2013-01-20 15:53:00
9:53 AM,17.1,12.0,81,30.62,4.0,NE,9.2,-,0.00,Snow,Light Snow,50,2013-01-20 16:53:00
10:53 AM,16.0,10.9,81,30.61,6.0,NE,9.2,-,0.00,,Haze,50,2013-01-20 17:53:00
11:53 AM,17.1,12.0,81,30.62,6.0,NE,8.1,-,N/A,,Haze,40,2013-01-20 18:53:00
12:42 PM,17.6,10.4,73,30.40,10.0,NE,6.9,-,N/A,,Overcast,50,2013-01-20 19:42:00
12:53 PM,17.1,10.9,77,30.59,9.0,ENE,6.9,-,N/A,,Overcast,60,2013-01-20 19:53:00
1:10 PM,17.6,10.4,73,30.39,10.0,NE,8.1,-,N/A,,Overcast,50,2013-01-20 20:10:00
1:53 PM,17.1,12.0,81,30.57,10.0,ENE,5.8,-,N/A,,Overcast,70,2013-01-20 20:53:00
2:53 PM,17.1,12.0,81,30.55,10.0,ENE,10.4,-,N/A,,Overcast,60,2013-01-20 21:53:00
3:46 PM,15.8,10.4,79,30.35,10.0,ENE,9.2,-,0.00,,Overcast,70,2013-01-20 22:46:00
3:53 PM,15.1,10.0,80,30.56,10.0,ENE,8.1,-,0.00,,Overcast,70,2013-01-20 22:53:00
4:22 PM,15.8,10.4,79,30.35,10.0,ENE,9.2,-,N/A,,Overcast,60,2013-01-20 23:22:00
4:53 PM,14.0,9.0,80,30.56,10.0,East,6.9,-,N/A,,Overcast,80,2013-01-20 23:53:00
5:53 PM,14.0,9.0,80,30.56,10.0,East,6.9,-,N/A,,Overcast,80,2013-01-21 00:53:00
6:53 PM,14.0,9.0,80,30.53,10.0,East,6.9,-,N/A,,Overcast,100,2013-01-21 01:53:00
7:53 PM,14.0,9.0,80,30.52,10.0,East,6.9,-,N/A,,Overcast,100,2013-01-21 02:53:00
8:53 PM,16.0,10.9,81,30.49,10.0,East,3.5,-,N/A,,Overcast,100,2013-01-21 03:53:00
9:53 PM,17.1,10.9,77,30.46,10.0,Calm,Calm,-,N/A,,Overcast,0,2013-01-21 04:53:00
10:38 PM,15.8,10.4,79,30.26,10.0,NE,10.4,-,N/A,,Overcast,50,2013-01-21 05:38:00
10:53 PM,14.0,9.0,80,30.48,10.0,NE,10.4,-,N/A,,Overcast,40,2013-01-21 05:53:00
11:41 PM,12.2,8.6,85,30.22,10.0,ESE,4.6,-,N/A,,Overcast,110,2013-01-21 06:41:00
11:53 PM,12.9,9.0,84,30.43,10.0,SE,4.6,-,N/A,,Overcast,140,2013-01-21 06:53:00